YM Maturity — A8UU8 — position and weather

sailwx.info

Track history (hours):
 
Tides and Currents Weather Stations Pressure Air Temp Water Temp Dewpoint Dewpoint Depression Visibility Wind Speed Wind Dir Waves Ship Positions

YM Maturity

Last reported at 2017-Nov-17 17:00 UTC. Time now 2017-Nov-23 07:40 UTC.
Position N 30°00' E 151°42'.

Length 299 m; draft 13.1 m.

Type: Cargo ship. MMSI: 636014558.

Wind from 140 at 6 knots

Barometer 1019.0 mb
Air temperature 21.0 ° C
Water temperature 20.5 ° C

Date/timePositionNaut miles runAvg speedWind from/ knotsBaromVisibWave heightAir tempDewpointWater temp
2017-Nov-17 17:00N 30°00' E 151°42'   140 / 61019.0 21.0 20.5
2017-Nov-15 01:00N 38°12' E 175°30'17219.1 050 / 401020.0 5.4 15.0 13.1
2017-Nov-14 16:00N 38°42' E 179°06'31119.4 160 / 221017.0 18.0 14.0
2017-Nov-14 00:00N 39°30' W 174°18'17119.1 180 / 201019.0 5.4 19.0 14.3
2017-Nov-13 15:00N 39°42' W 170°36'31819.9 140 / 301021.0 18.0 15.0
2017-Nov-12 23:00N 39°54' W 163°42'18921.0 090 / 201028.0 5.4 17.0 13.8
2017-Nov-12 14:00N 40°00' W 159°36'32620.4 050 / 151028.0 14.0 13.5
2017-Nov-11 22:00N 40°12' W 152°30'98619.7 340 / 171025.0 5.4 13.0 12.2
2017-Nov-09 20:00N 38°42' W 131°18'34916.2 230 / 311012.0 5.4 17.0 14.1
2017-Nov-08 22:25N 38°09' W 123°54'817.2
2017-Nov-08 21:58N 38°10' W 123°44'817.7
2017-Nov-08 21:30N 38°10' W 123°34'917.2
2017-Nov-08 21:00N 38°10' W 123°23'5 9.6
2017-Nov-08 20:30N 38°07' W 123°18'5 9.5
2017-Nov-08 20:00N 38°04' W 123°14'5 9.6
2017-Nov-08 19:30N 37°60' W 123°10'5 9.5
2017-Nov-08 19:00N 37°57' W 123°05'5 9.7
2017-Nov-08 18:30N 37°55' W 122°60'5 9.7
2017-Nov-08 18:00N 37°52' W 122°55'5 9.8
2017-Nov-08 17:30N 37°50' W 122°49'5 9.7
2017-Nov-08 17:00N 37°47' W 122°44'4 8.6
2017-Nov-08 16:31N 37°46' W 122°39'713.1
2017-Nov-08 16:00N 37°48' W 122°31'612.6
2017-Nov-08 15:30N 37°49' W 122°24'4 7.8
2017-Nov-08 15:00N 37°48' W 122°19'1 2.6
2017-Nov-08 14:30N 37°48' W 122°17'1 2.2
2017-Nov-08 14:00N 37°48' W 122°19'0 0.5
2017-Nov-08 13:30N 37°48' W 122°19'0 0.0
2017-Nov-08 13:00N 37°48' W 122°19'0 0.0
2017-Nov-08 12:30N 37°48' W 122°19'0 0.0
2017-Nov-08 12:00N 37°48' W 122°19'0 0.0
2017-Nov-08 11:30N 37°48' W 122°19'0 0.0
2017-Nov-08 11:00N 37°48' W 122°19'0 0.0
2017-Nov-08 10:30N 37°48' W 122°19'0 0.0
2017-Nov-08 10:00N 37°48' W 122°19'0 0.0
2017-Nov-08 09:30N 37°48' W 122°19'0 0.0
2017-Nov-08 09:00N 37°48' W 122°19'0 0.0
2017-Nov-08 08:30N 37°48' W 122°19'0 0.0
2017-Nov-08 08:00N 37°48' W 122°19'0 0.0
2017-Nov-08 07:30N 37°48' W 122°19'0 0.0
2017-Nov-08 07:00N 37°48' W 122°19'0 0.0
2017-Nov-08 06:30N 37°48' W 122°19'0 0.0
2017-Nov-08 06:00N 37°48' W 122°19'0 0.0
2017-Nov-08 05:30N 37°48' W 122°19'0 0.0
2017-Nov-08 05:00N 37°48' W 122°19'0 0.0
2017-Nov-08 04:30N 37°48' W 122°19'0 0.0
2017-Nov-08 04:00N 37°48' W 122°19'0 0.0
2017-Nov-08 03:30N 37°48' W 122°19'0 0.0
2017-Nov-08 03:00N 37°48' W 122°19'0 0.0
2017-Nov-08 02:30N 37°48' W 122°19'0 0.0
2017-Nov-08 02:00N 37°48' W 122°19'0 0.0
2017-Nov-08 01:30N 37°48' W 122°19'0 0.0
2017-Nov-08 01:00N 37°48' W 122°19'0 0.0
2017-Nov-08 00:30N 37°48' W 122°19'0 0.0
2017-Nov-08 00:00N 37°48' W 122°19'0 0.0
2017-Nov-07 23:30N 37°48' W 122°19'0 0.0
2017-Nov-07 23:00N 37°48' W 122°19'0 0.0
2017-Nov-07 22:30N 37°48' W 122°19'0 0.0
2017-Nov-07 22:00N 37°48' W 122°19'0 0.0
2017-Nov-07 21:30N 37°48' W 122°19'0 0.0
2017-Nov-07 21:00N 37°48' W 122°19'0 0.0
2017-Nov-07 20:30N 37°48' W 122°19'0 0.0
2017-Nov-07 20:00N 37°48' W 122°19'0 0.0
2017-Nov-07 19:30N 37°48' W 122°19'0 0.0
2017-Nov-07 19:00N 37°48' W 122°19'0 0.0
2017-Nov-07 18:30N 37°48' W 122°19'0 0.0
2017-Nov-07 18:00N 37°48' W 122°19'0 0.0
2017-Nov-07 17:30N 37°48' W 122°19'0 0.0
2017-Nov-07 17:00N 37°48' W 122°19'  
Track history (hours):
 
Tides and Currents Weather Stations Pressure Air Temp Water Temp Dewpoint Dewpoint Depression Visibility Wind Speed Wind Dir Waves Ship Positions

YM Maturity

Last reported at 2017-Nov-17 17:00 UTC. Time now 2017-Nov-23 07:40 UTC.
Position N 30°00' E 151°42'.

Length 299 m; draft 13.1 m.

Type: Cargo ship. MMSI: 636014558.

Wind from 140 at 6 knots

Barometer 1019.0 mb
Air temperature 21.0 ° C
Water temperature 20.5 ° C

Date/timePositionNaut miles runAvg speedWind from/ knotsBaromVisibWave heightAir tempDewpointWater temp
2017-Nov-17 17:00N 30°00' E 151°42'   140 / 61019.0 21.0 20.5
2017-Nov-15 01:00N 38°12' E 175°30'17219.1 050 / 401020.0 5.4 15.0 13.1
2017-Nov-14 16:00N 38°42' E 179°06'31119.4 160 / 221017.0 18.0 14.0
2017-Nov-14 00:00N 39°30' W 174°18'17119.1 180 / 201019.0 5.4 19.0 14.3
2017-Nov-13 15:00N 39°42' W 170°36'31819.9 140 / 301021.0 18.0 15.0
2017-Nov-12 23:00N 39°54' W 163°42'18921.0 090 / 201028.0 5.4 17.0 13.8
2017-Nov-12 14:00N 40°00' W 159°36'32620.4 050 / 151028.0 14.0 13.5
2017-Nov-11 22:00N 40°12' W 152°30'98619.7 340 / 171025.0 5.4 13.0 12.2
2017-Nov-09 20:00N 38°42' W 131°18'34916.2 230 / 311012.0 5.4 17.0 14.1
2017-Nov-08 22:25N 38°09' W 123°54'817.2
2017-Nov-08 21:58N 38°10' W 123°44'817.7
2017-Nov-08 21:30N 38°10' W 123°34'917.2
2017-Nov-08 21:00N 38°10' W 123°23'5 9.6
2017-Nov-08 20:30N 38°07' W 123°18'5 9.5
2017-Nov-08 20:00N 38°04' W 123°14'5 9.6
2017-Nov-08 19:30N 37°60' W 123°10'5 9.5
2017-Nov-08 19:00N 37°57' W 123°05'5 9.7
2017-Nov-08 18:30N 37°55' W 122°60'5 9.7
2017-Nov-08 18:00N 37°52' W 122°55'5 9.8
2017-Nov-08 17:30N 37°50' W 122°49'5 9.7
2017-Nov-08 17:00N 37°47' W 122°44'4 8.6
2017-Nov-08 16:31N 37°46' W 122°39'713.1
2017-Nov-08 16:00N 37°48' W 122°31'612.6
2017-Nov-08 15:30N 37°49' W 122°24'4 7.8
2017-Nov-08 15:00N 37°48' W 122°19'1 2.6
2017-Nov-08 14:30N 37°48' W 122°17'1 2.2
2017-Nov-08 14:00N 37°48' W 122°19'0 0.5
2017-Nov-08 13:30N 37°48' W 122°19'0 0.0
2017-Nov-08 13:00N 37°48' W 122°19'0 0.0
2017-Nov-08 12:30N 37°48' W 122°19'0 0.0
2017-Nov-08 12:00N 37°48' W 122°19'0 0.0
2017-Nov-08 11:30N 37°48' W 122°19'0 0.0
2017-Nov-08 11:00N 37°48' W 122°19'0 0.0
2017-Nov-08 10:30N 37°48' W 122°19'0 0.0
2017-Nov-08 10:00N 37°48' W 122°19'0 0.0
2017-Nov-08 09:30N 37°48' W 122°19'0 0.0
2017-Nov-08 09:00N 37°48' W 122°19'0 0.0
2017-Nov-08 08:30N 37°48' W 122°19'0 0.0
2017-Nov-08 08:00N 37°48' W 122°19'0 0.0
2017-Nov-08 07:30N 37°48' W 122°19'0 0.0
2017-Nov-08 07:00N 37°48' W 122°19'0 0.0
2017-Nov-08 06:30N 37°48' W 122°19'0 0.0
2017-Nov-08 06:00N 37°48' W 122°19'0 0.0
2017-Nov-08 05:30N 37°48' W 122°19'0 0.0
2017-Nov-08 05:00N 37°48' W 122°19'0 0.0
2017-Nov-08 04:30N 37°48' W 122°19'0 0.0
2017-Nov-08 04:00N 37°48' W 122°19'0 0.0
2017-Nov-08 03:30N 37°48' W 122°19'0 0.0
2017-Nov-08 03:00N 37°48' W 122°19'0 0.0
2017-Nov-08 02:30N 37°48' W 122°19'0 0.0
2017-Nov-08 02:00N 37°48' W 122°19'0 0.0
2017-Nov-08 01:30N 37°48' W 122°19'0 0.0
2017-Nov-08 01:00N 37°48' W 122°19'0 0.0
2017-Nov-08 00:30N 37°48' W 122°19'0 0.0
2017-Nov-08 00:00N 37°48' W 122°19'0 0.0
2017-Nov-07 23:30N 37°48' W 122°19'0 0.0
2017-Nov-07 23:00N 37°48' W 122°19'0 0.0
2017-Nov-07 22:30N 37°48' W 122°19'0 0.0
2017-Nov-07 22:00N 37°48' W 122°19'0 0.0
2017-Nov-07 21:30N 37°48' W 122°19'0 0.0
2017-Nov-07 21:00N 37°48' W 122°19'0 0.0
2017-Nov-07 20:30N 37°48' W 122°19'0 0.0
2017-Nov-07 20:00N 37°48' W 122°19'0 0.0
2017-Nov-07 19:30N 37°48' W 122°19'0 0.0
2017-Nov-07 19:00N 37°48' W 122°19'0 0.0
2017-Nov-07 18:30N 37°48' W 122°19'0 0.0
2017-Nov-07 18:00N 37°48' W 122°19'0 0.0
2017-Nov-07 17:30N 37°48' W 122°19'0 0.0
2017-Nov-07 17:00N 37°48' W 122°19'  

Dump ship's entire track history